sensor_id;sensor_type;location;lat;lon;timestamp;P1;durP1;ratioP1;P2;durP2;ratioP2
59756;SDS011;45631;51.962;5.974;2023-06-04T00:01:08;5.15;;;1.40;;
59756;SDS011;45631;51.962;5.974;2023-06-04T00:03:42;3.72;;;1.48;;
59756;SDS011;45631;51.962;5.974;2023-06-04T00:06:11;3.83;;;1.40;;
59756;SDS011;45631;51.962;5.974;2023-06-04T00:08:39;3.33;;;1.45;;
59756;SDS011;45631;51.962;5.974;2023-06-04T00:11:07;4.72;;;1.60;;
59756;SDS011;45631;51.962;5.974;2023-06-04T00:13:35;2.67;;;1.30;;
59756;SDS011;45631;51.962;5.974;2023-06-04T00:16:04;2.95;;;1.30;;
59756;SDS011;45631;51.962;5.974;2023-06-04T00:18:34;6.82;;;1.85;;
59756;SDS011;45631;51.962;5.974;2023-06-04T00:21:02;5.45;;;1.58;;
59756;SDS011;45631;51.962;5.974;2023-06-04T00:23:30;5.90;;;1.48;;
59756;SDS011;45631;51.962;5.974;2023-06-04T00:25:59;3.25;;;1.20;;
59756;SDS011;45631;51.962;5.974;2023-06-04T00:28:27;2.28;;;1.23;;
59756;SDS011;45631;51.962;5.974;2023-06-04T00:30:56;5.60;;;1.40;;
59756;SDS011;45631;51.962;5.974;2023-06-04T00:33:24;3.80;;;1.50;;
59756;SDS011;45631;51.962;5.974;2023-06-04T00:35:56;5.35;;;1.67;;
59756;SDS011;45631;51.962;5.974;2023-06-04T00:38:24;3.78;;;1.40;;
59756;SDS011;45631;51.962;5.974;2023-06-04T00:40:52;3.75;;;1.27;;
59756;SDS011;45631;51.962;5.974;2023-06-04T00:43:20;3.20;;;1.27;;
59756;SDS011;45631;51.962;5.974;2023-06-04T00:45:52;3.70;;;1.40;;
59756;SDS011;45631;51.962;5.974;2023-06-04T00:48:20;4.28;;;1.35;;
59756;SDS011;45631;51.962;5.974;2023-06-04T00:50:48;4.63;;;1.73;;
59756;SDS011;45631;51.962;5.974;2023-06-04T00:53:18;4.22;;;1.30;;
59756;SDS011;45631;51.962;5.974;2023-06-04T00:55:47;4.85;;;1.60;;
59756;SDS011;45631;51.962;5.974;2023-06-04T00:58:16;2.97;;;1.33;;
59756;SDS011;45631;51.962;5.974;2023-06-04T01:00:45;2.90;;;1.40;;
59756;SDS011;45631;51.962;5.974;2023-06-04T01:03:13;3.17;;;1.55;;
59756;SDS011;45631;51.962;5.974;2023-06-04T01:05:47;3.53;;;1.30;;
59756;SDS011;45631;51.962;5.974;2023-06-04T01:08:22;3.85;;;1.33;;
59756;SDS011;45631;51.962;5.974;2023-06-04T01:10:51;4.82;;;1.42;;
59756;SDS011;45631;51.962;5.974;2023-06-04T01:13:19;6.05;;;1.60;;
59756;SDS011;45631;51.962;5.974;2023-06-04T01:15:47;6.75;;;1.50;;
59756;SDS011;45631;51.962;5.974;2023-06-04T01:18:18;5.75;;;1.55;;
59756;SDS011;45631;51.962;5.974;2023-06-04T01:20:55;3.95;;;1.52;;
59756;SDS011;45631;51.962;5.974;2023-06-04T01:23:30;2.92;;;1.33;;
59756;SDS011;45631;51.962;5.974;2023-06-04T01:26:05;3.15;;;1.23;;
59756;SDS011;45631;51.962;5.974;2023-06-04T01:28:34;5.25;;;1.60;;
59756;SDS011;45631;51.962;5.974;2023-06-04T01:31:03;5.53;;;1.80;;
59756;SDS011;45631;51.962;5.974;2023-06-04T01:33:34;4.82;;;1.63;;
59756;SDS011;45631;51.962;5.974;2023-06-04T01:36:03;2.83;;;1.30;;
59756;SDS011;45631;51.962;5.974;2023-06-04T01:38:34;2.83;;;1.40;;
59756;SDS011;45631;51.962;5.974;2023-06-04T01:41:02;5.57;;;1.60;;
59756;SDS011;45631;51.962;5.974;2023-06-04T01:43:31;3.28;;;1.52;;
59756;SDS011;45631;51.962;5.974;2023-06-04T01:46:01;4.05;;;1.63;;
59756;SDS011;45631;51.962;5.974;2023-06-04T01:48:30;3.70;;;1.50;;
59756;SDS011;45631;51.962;5.974;2023-06-04T01:50:59;5.43;;;1.50;;
59756;SDS011;45631;51.962;5.974;2023-06-04T01:53:28;4.45;;;1.90;;
59756;SDS011;45631;51.962;5.974;2023-06-04T01:55:58;6.03;;;2.08;;
59756;SDS011;45631;51.962;5.974;2023-06-04T01:58:27;4.00;;;1.60;;
59756;SDS011;45631;51.962;5.974;2023-06-04T02:00:55;5.68;;;1.80;;
59756;SDS011;45631;51.962;5.974;2023-06-04T02:03:27;2.58;;;1.40;;
59756;SDS011;45631;51.962;5.974;2023-06-04T02:05:59;3.72;;;1.35;;
59756;SDS011;45631;51.962;5.974;2023-06-04T02:08:27;4.45;;;1.38;;
59756;SDS011;45631;51.962;5.974;2023-06-04T02:10:56;4.53;;;1.60;;
59756;SDS011;45631;51.962;5.974;2023-06-04T02:13:26;3.13;;;1.25;;
59756;SDS011;45631;51.962;5.974;2023-06-04T02:15:54;5.68;;;1.90;;
59756;SDS011;45631;51.962;5.974;2023-06-04T02:18:22;3.05;;;1.50;;
59756;SDS011;45631;51.962;5.974;2023-06-04T02:20:51;5.38;;;1.60;;
59756;SDS011;45631;51.962;5.974;2023-06-04T02:23:19;3.78;;;1.60;;
59756;SDS011;45631;51.962;5.974;2023-06-04T02:25:48;3.15;;;1.35;;
59756;SDS011;45631;51.962;5.974;2023-06-04T02:28:21;5.47;;;1.50;;
59756;SDS011;45631;51.962;5.974;2023-06-04T02:30:49;4.05;;;1.50;;
59756;SDS011;45631;51.962;5.974;2023-06-04T02:33:20;3.70;;;1.40;;
59756;SDS011;45631;51.962;5.974;2023-06-04T02:35:48;4.05;;;1.60;;
59756;SDS011;45631;51.962;5.974;2023-06-04T02:38:16;4.30;;;1.50;;
59756;SDS011;45631;51.962;5.974;2023-06-04T02:40:44;2.90;;;1.58;;
59756;SDS011;45631;51.962;5.974;2023-06-04T02:43:12;4.47;;;1.60;;
59756;SDS011;45631;51.962;5.974;2023-06-04T02:45:42;7.65;;;1.80;;
59756;SDS011;45631;51.962;5.974;2023-06-04T02:48:10;7.07;;;1.92;;
59756;SDS011;45631;51.962;5.974;2023-06-04T02:50:38;4.45;;;1.90;;
59756;SDS011;45631;51.962;5.974;2023-06-04T02:53:08;5.78;;;1.70;;
59756;SDS011;45631;51.962;5.974;2023-06-04T02:55:36;5.68;;;1.90;;
59756;SDS011;45631;51.962;5.974;2023-06-04T02:58:05;4.28;;;1.63;;
59756;SDS011;45631;51.962;5.974;2023-06-04T03:00:33;5.00;;;1.60;;
59756;SDS011;45631;51.962;5.974;2023-06-04T03:03:03;3.55;;;1.63;;
59756;SDS011;45631;51.962;5.974;2023-06-04T03:05:31;3.90;;;1.70;;
59756;SDS011;45631;51.962;5.974;2023-06-04T03:08:00;3.78;;;1.70;;
59756;SDS011;45631;51.962;5.974;2023-06-04T03:10:30;3.70;;;1.73;;
59756;SDS011;45631;51.962;5.974;2023-06-04T03:12:59;6.22;;;1.83;;
59756;SDS011;45631;51.962;5.974;2023-06-04T03:15:27;6.78;;;1.98;;
59756;SDS011;45631;51.962;5.974;2023-06-04T03:17:55;4.05;;;1.75;;
59756;SDS011;45631;51.962;5.974;2023-06-04T03:20:25;4.10;;;1.80;;
59756;SDS011;45631;51.962;5.974;2023-06-04T03:22:53;6.00;;;1.95;;
59756;SDS011;45631;51.962;5.974;2023-06-04T03:25:21;4.13;;;1.77;;
59756;SDS011;45631;51.962;5.974;2023-06-04T03:27:49;5.90;;;1.80;;
59756;SDS011;45631;51.962;5.974;2023-06-04T03:30:17;3.67;;;1.85;;
59756;SDS011;45631;51.962;5.974;2023-06-04T03:32:45;9.43;;;2.22;;
59756;SDS011;45631;51.962;5.974;2023-06-04T03:35:14;4.28;;;1.98;;
59756;SDS011;45631;51.962;5.974;2023-06-04T03:37:44;7.75;;;2.28;;
59756;SDS011;45631;51.962;5.974;2023-06-04T03:42:46;4.95;;;1.90;;
59756;SDS011;45631;51.962;5.974;2023-06-04T03:45:14;5.63;;;1.92;;
59756;SDS011;45631;51.962;5.974;2023-06-04T03:47:45;5.55;;;1.80;;
59756;SDS011;45631;51.962;5.974;2023-06-04T03:50:13;4.38;;;1.88;;
59756;SDS011;45631;51.962;5.974;2023-06-04T03:52:42;6.18;;;1.83;;
59756;SDS011;45631;51.962;5.974;2023-06-04T03:55:11;3.85;;;1.88;;
59756;SDS011;45631;51.962;5.974;2023-06-04T03:57:40;5.55;;;2.00;;
59756;SDS011;45631;51.962;5.974;2023-06-04T04:00:11;5.20;;;2.10;;
59756;SDS011;45631;51.962;5.974;2023-06-04T04:02:43;3.42;;;1.73;;
59756;SDS011;45631;51.962;5.974;2023-06-04T04:05:14;5.22;;;2.15;;
59756;SDS011;45631;51.962;5.974;2023-06-04T04:07:44;7.63;;;2.13;;
59756;SDS011;45631;51.962;5.974;2023-06-04T04:10:13;5.53;;;1.90;;
59756;SDS011;45631;51.962;5.974;2023-06-04T04:12:41;5.45;;;2.00;;
59756;SDS011;45631;51.962;5.974;2023-06-04T04:15:10;6.47;;;2.35;;
59756;SDS011;45631;51.962;5.974;2023-06-04T04:17:38;6.95;;;2.10;;
59756;SDS011;45631;51.962;5.974;2023-06-04T04:20:06;6.32;;;2.08;;
59756;SDS011;45631;51.962;5.974;2023-06-04T04:22:34;6.65;;;2.10;;
59756;SDS011;45631;51.962;5.974;2023-06-04T04:25:04;4.32;;;2.10;;
59756;SDS011;45631;51.962;5.974;2023-06-04T04:27:34;8.68;;;2.28;;
59756;SDS011;45631;51.962;5.974;2023-06-04T04:30:05;7.85;;;2.10;;
59756;SDS011;45631;51.962;5.974;2023-06-04T04:32:34;7.00;;;2.15;;
59756;SDS011;45631;51.962;5.974;2023-06-04T04:35:05;4.82;;;2.20;;
59756;SDS011;45631;51.962;5.974;2023-06-04T04:37:35;6.57;;;2.35;;
59756;SDS011;45631;51.962;5.974;2023-06-04T04:40:09;7.18;;;2.33;;
59756;SDS011;45631;51.962;5.974;2023-06-04T04:42:38;5.13;;;2.22;;
59756;SDS011;45631;51.962;5.974;2023-06-04T04:45:08;5.78;;;2.05;;
59756;SDS011;45631;51.962;5.974;2023-06-04T04:47:37;7.70;;;2.58;;
59756;SDS011;45631;51.962;5.974;2023-06-04T04:50:06;7.38;;;2.45;;
59756;SDS011;45631;51.962;5.974;2023-06-04T04:52:34;5.35;;;2.17;;
59756;SDS011;45631;51.962;5.974;2023-06-04T04:55:03;4.75;;;2.28;;
59756;SDS011;45631;51.962;5.974;2023-06-04T04:57:33;8.10;;;2.05;;
59756;SDS011;45631;51.962;5.974;2023-06-04T05:00:01;6.05;;;2.55;;
59756;SDS011;45631;51.962;5.974;2023-06-04T05:02:31;7.05;;;2.50;;
59756;SDS011;45631;51.962;5.974;2023-06-04T05:05:00;7.28;;;2.25;;
59756;SDS011;45631;51.962;5.974;2023-06-04T05:07:28;5.38;;;2.25;;
59756;SDS011;45631;51.962;5.974;2023-06-04T05:09:56;7.70;;;2.75;;
59756;SDS011;45631;51.962;5.974;2023-06-04T05:12:25;5.40;;;2.53;;
59756;SDS011;45631;51.962;5.974;2023-06-04T05:14:55;9.50;;;3.10;;
59756;SDS011;45631;51.962;5.974;2023-06-04T05:17:23;5.25;;;2.55;;
59756;SDS011;45631;51.962;5.974;2023-06-04T05:19:56;4.72;;;2.35;;
59756;SDS011;45631;51.962;5.974;2023-06-04T05:22:38;8.10;;;2.42;;
59756;SDS011;45631;51.962;5.974;2023-06-04T05:25:07;7.75;;;2.58;;
59756;SDS011;45631;51.962;5.974;2023-06-04T05:27:36;7.03;;;2.42;;
59756;SDS011;45631;51.962;5.974;2023-06-04T05:30:06;7.57;;;2.50;;
59756;SDS011;45631;51.962;5.974;2023-06-04T05:32:36;9.10;;;2.58;;
59756;SDS011;45631;51.962;5.974;2023-06-04T05:35:08;6.65;;;2.55;;
59756;SDS011;45631;51.962;5.974;2023-06-04T05:37:37;6.70;;;2.70;;
59756;SDS011;45631;51.962;5.974;2023-06-04T05:40:07;6.88;;;2.80;;
59756;SDS011;45631;51.962;5.974;2023-06-04T05:42:37;5.05;;;2.42;;
59756;SDS011;45631;51.962;5.974;2023-06-04T05:45:07;7.10;;;2.60;;
59756;SDS011;45631;51.962;5.974;2023-06-04T05:47:36;8.88;;;2.70;;
59756;SDS011;45631;51.962;5.974;2023-06-04T05:50:04;10.70;;;2.80;;
59756;SDS011;45631;51.962;5.974;2023-06-04T05:52:33;7.13;;;2.67;;
59756;SDS011;45631;51.962;5.974;2023-06-04T05:55:03;7.75;;;2.55;;
59756;SDS011;45631;51.962;5.974;2023-06-04T05:57:34;5.38;;;2.55;;
59756;SDS011;45631;51.962;5.974;2023-06-04T06:00:02;6.55;;;2.72;;
59756;SDS011;45631;51.962;5.974;2023-06-04T06:02:36;6.88;;;2.60;;
59756;SDS011;45631;51.962;5.974;2023-06-04T06:05:05;7.90;;;2.60;;
59756;SDS011;45631;51.962;5.974;2023-06-04T06:07:34;6.53;;;2.72;;
59756;SDS011;45631;51.962;5.974;2023-06-04T06:10:03;6.70;;;2.72;;
59756;SDS011;45631;51.962;5.974;2023-06-04T06:12:32;8.15;;;2.55;;
59756;SDS011;45631;51.962;5.974;2023-06-04T06:15:03;6.68;;;2.50;;
59756;SDS011;45631;51.962;5.974;2023-06-04T06:17:33;7.35;;;2.58;;
59756;SDS011;45631;51.962;5.974;2023-06-04T06:20:03;4.75;;;2.50;;
59756;SDS011;45631;51.962;5.974;2023-06-04T06:22:33;7.53;;;2.95;;
59756;SDS011;45631;51.962;5.974;2023-06-04T06:25:02;7.03;;;2.40;;
59756;SDS011;45631;51.962;5.974;2023-06-04T06:27:32;6.40;;;2.60;;
59756;SDS011;45631;51.962;5.974;2023-06-04T06:30:00;7.80;;;2.70;;
59756;SDS011;45631;51.962;5.974;2023-06-04T06:32:28;6.50;;;2.60;;
59756;SDS011;45631;51.962;5.974;2023-06-04T06:34:56;6.20;;;2.58;;
59756;SDS011;45631;51.962;5.974;2023-06-04T06:37:26;6.82;;;2.92;;
59756;SDS011;45631;51.962;5.974;2023-06-04T06:39:55;6.15;;;2.97;;
59756;SDS011;45631;51.962;5.974;2023-06-04T06:42:23;6.28;;;2.90;;
59756;SDS011;45631;51.962;5.974;2023-06-04T06:44:52;6.70;;;2.78;;
59756;SDS011;45631;51.962;5.974;2023-06-04T06:47:20;6.75;;;2.28;;
59756;SDS011;45631;51.962;5.974;2023-06-04T06:49:48;4.63;;;2.13;;
59756;SDS011;45631;51.962;5.974;2023-06-04T06:52:16;7.25;;;2.47;;
59756;SDS011;45631;51.962;5.974;2023-06-04T06:54:47;5.15;;;2.50;;
59756;SDS011;45631;51.962;5.974;2023-06-04T06:57:15;5.20;;;2.53;;
59756;SDS011;45631;51.962;5.974;2023-06-04T06:59:43;6.57;;;2.30;;
59756;SDS011;45631;51.962;5.974;2023-06-04T07:02:12;5.35;;;2.17;;
59756;SDS011;45631;51.962;5.974;2023-06-04T07:04:40;6.10;;;2.42;;
59756;SDS011;45631;51.962;5.974;2023-06-04T07:07:08;8.63;;;2.40;;
59756;SDS011;45631;51.962;5.974;2023-06-04T07:09:36;7.00;;;2.53;;
59756;SDS011;45631;51.962;5.974;2023-06-04T07:12:06;5.05;;;2.33;;
59756;SDS011;45631;51.962;5.974;2023-06-04T07:14:34;7.00;;;2.10;;
59756;SDS011;45631;51.962;5.974;2023-06-04T07:17:02;6.60;;;1.90;;
59756;SDS011;45631;51.962;5.974;2023-06-04T07:19:31;6.00;;;2.35;;
59756;SDS011;45631;51.962;5.974;2023-06-04T07:21:59;6.15;;;2.40;;
59756;SDS011;45631;51.962;5.974;2023-06-04T07:24:27;6.45;;;2.25;;
59756;SDS011;45631;51.962;5.974;2023-06-04T07:26:56;6.57;;;2.40;;
59756;SDS011;45631;51.962;5.974;2023-06-04T07:29:25;6.65;;;2.13;;
59756;SDS011;45631;51.962;5.974;2023-06-04T07:31:53;6.55;;;2.40;;
59756;SDS011;45631;51.962;5.974;2023-06-04T07:34:22;6.35;;;2.20;;
59756;SDS011;45631;51.962;5.974;2023-06-04T07:36:50;8.70;;;2.15;;
59756;SDS011;45631;51.962;5.974;2023-06-04T07:39:18;5.88;;;1.92;;
59756;SDS011;45631;51.962;5.974;2023-06-04T07:41:46;6.43;;;2.15;;
59756;SDS011;45631;51.962;5.974;2023-06-04T07:44:14;6.35;;;2.40;;
59756;SDS011;45631;51.962;5.974;2023-06-04T07:46:44;6.15;;;2.13;;
59756;SDS011;45631;51.962;5.974;2023-06-04T07:49:12;4.75;;;1.88;;
59756;SDS011;45631;51.962;5.974;2023-06-04T07:51:40;5.63;;;2.22;;
59756;SDS011;45631;51.962;5.974;2023-06-04T07:54:08;4.65;;;1.95;;
59756;SDS011;45631;51.962;5.974;2023-06-04T07:56:37;6.22;;;2.03;;
59756;SDS011;45631;51.962;5.974;2023-06-04T07:59:05;5.07;;;2.03;;
59756;SDS011;45631;51.962;5.974;2023-06-04T08:01:36;5.38;;;1.80;;
59756;SDS011;45631;51.962;5.974;2023-06-04T08:04:05;8.35;;;2.20;;
59756;SDS011;45631;51.962;5.974;2023-06-04T08:06:34;5.97;;;1.80;;
59756;SDS011;45631;51.962;5.974;2023-06-04T08:09:02;5.10;;;1.70;;
59756;SDS011;45631;51.962;5.974;2023-06-04T08:11:30;5.45;;;1.90;;
59756;SDS011;45631;51.962;5.974;2023-06-04T08:13:59;6.35;;;1.70;;
59756;SDS011;45631;51.962;5.974;2023-06-04T08:16:27;4.78;;;1.90;;
59756;SDS011;45631;51.962;5.974;2023-06-04T08:18:55;5.00;;;1.50;;
59756;SDS011;45631;51.962;5.974;2023-06-04T08:21:27;4.97;;;1.58;;
59756;SDS011;45631;51.962;5.974;2023-06-04T08:23:56;5.32;;;1.75;;
59756;SDS011;45631;51.962;5.974;2023-06-04T08:26:26;4.30;;;1.80;;
59756;SDS011;45631;51.962;5.974;2023-06-04T08:28:57;6.32;;;1.63;;
59756;SDS011;45631;51.962;5.974;2023-06-04T08:31:25;4.90;;;1.35;;
59756;SDS011;45631;51.962;5.974;2023-06-04T08:33:53;3.95;;;1.45;;
59756;SDS011;45631;51.962;5.974;2023-06-04T08:36:21;4.40;;;1.30;;
59756;SDS011;45631;51.962;5.974;2023-06-04T08:38:52;4.35;;;1.30;;
59756;SDS011;45631;51.962;5.974;2023-06-04T08:41:24;7.63;;;1.85;;
59756;SDS011;45631;51.962;5.974;2023-06-04T08:43:58;3.33;;;1.25;;
59756;SDS011;45631;51.962;5.974;2023-06-04T08:46:31;4.20;;;2.00;;
59756;SDS011;45631;51.962;5.974;2023-06-04T08:49:00;5.32;;;1.50;;
59756;SDS011;45631;51.962;5.974;2023-06-04T08:51:29;3.63;;;1.50;;
59756;SDS011;45631;51.962;5.974;2023-06-04T08:54:02;6.15;;;1.60;;
59756;SDS011;45631;51.962;5.974;2023-06-04T08:56:31;5.53;;;1.67;;
59756;SDS011;45631;51.962;5.974;2023-06-04T08:59:00;4.18;;;1.50;;
59756;SDS011;45631;51.962;5.974;2023-06-04T09:01:30;3.65;;;1.40;;
59756;SDS011;45631;51.962;5.974;2023-06-04T09:04:01;4.22;;;1.35;;
59756;SDS011;45631;51.962;5.974;2023-06-04T09:06:36;3.70;;;1.20;;
59756;SDS011;45631;51.962;5.974;2023-06-04T09:09:08;3.65;;;1.33;;
59756;SDS011;45631;51.962;5.974;2023-06-04T09:11:41;3.03;;;1.20;;
59756;SDS011;45631;51.962;5.974;2023-06-04T09:14:13;4.68;;;1.40;;
59756;SDS011;45631;51.962;5.974;2023-06-04T09:16:44;5.35;;;1.40;;
59756;SDS011;45631;51.962;5.974;2023-06-04T09:19:13;3.63;;;1.35;;
59756;SDS011;45631;51.962;5.974;2023-06-04T09:21:51;6.65;;;1.42;;
59756;SDS011;45631;51.962;5.974;2023-06-04T09:24:23;4.10;;;1.60;;
59756;SDS011;45631;51.962;5.974;2023-06-04T09:26:52;4.32;;;1.48;;
59756;SDS011;45631;51.962;5.974;2023-06-04T09:29:22;4.25;;;1.35;;
59756;SDS011;45631;51.962;5.974;2023-06-04T09:31:57;4.63;;;1.55;;
59756;SDS011;45631;51.962;5.974;2023-06-04T09:34:28;3.17;;;1.33;;
59756;SDS011;45631;51.962;5.974;2023-06-04T09:36:59;2.42;;;1.20;;
59756;SDS011;45631;51.962;5.974;2023-06-04T09:39:29;3.33;;;1.30;;
59756;SDS011;45631;51.962;5.974;2023-06-04T09:41:57;4.78;;;1.20;;
59756;SDS011;45631;51.962;5.974;2023-06-04T09:44:27;3.33;;;1.30;;
59756;SDS011;45631;51.962;5.974;2023-06-04T09:46:58;3.65;;;1.15;;
59756;SDS011;45631;51.962;5.974;2023-06-04T09:49:26;3.10;;;1.40;;
59756;SDS011;45631;51.962;5.974;2023-06-04T09:51:55;3.15;;;1.17;;
59756;SDS011;45631;51.962;5.974;2023-06-04T09:54:23;3.85;;;1.30;;
59756;SDS011;45631;51.962;5.974;2023-06-04T09:57:04;5.00;;;1.08;;
59756;SDS011;45631;51.962;5.974;2023-06-04T09:59:43;2.17;;;0.98;;
59756;SDS011;45631;51.962;5.974;2023-06-04T10:02:12;3.72;;;0.90;;
59756;SDS011;45631;51.962;5.974;2023-06-04T10:04:40;3.65;;;1.20;;
59756;SDS011;45631;51.962;5.974;2023-06-04T10:07:11;3.95;;;1.35;;
59756;SDS011;45631;51.962;5.974;2023-06-04T10:09:41;4.95;;;1.25;;
59756;SDS011;45631;51.962;5.974;2023-06-04T10:12:13;2.63;;;1.15;;
59756;SDS011;45631;51.962;5.974;2023-06-04T10:14:45;6.47;;;1.40;;
59756;SDS011;45631;51.962;5.974;2023-06-04T10:17:21;3.38;;;1.23;;
59756;SDS011;45631;51.962;5.974;2023-06-04T10:19:51;4.10;;;1.20;;
59756;SDS011;45631;51.962;5.974;2023-06-04T10:22:23;2.05;;;1.17;;
59756;SDS011;45631;51.962;5.974;2023-06-04T10:24:53;8.02;;;1.20;;
59756;SDS011;45631;51.962;5.974;2023-06-04T10:27:21;3.05;;;1.30;;
59756;SDS011;45631;51.962;5.974;2023-06-04T10:29:50;2.63;;;1.23;;
59756;SDS011;45631;51.962;5.974;2023-06-04T10:32:19;4.38;;;1.10;;
59756;SDS011;45631;51.962;5.974;2023-06-04T10:34:47;3.28;;;1.10;;
59756;SDS011;45631;51.962;5.974;2023-06-04T10:37:19;3.83;;;1.27;;
59756;SDS011;45631;51.962;5.974;2023-06-04T10:39:51;3.85;;;1.20;;
59756;SDS011;45631;51.962;5.974;2023-06-04T10:42:21;4.07;;;1.10;;
59756;SDS011;45631;51.962;5.974;2023-06-04T10:44:50;3.25;;;1.25;;
59756;SDS011;45631;51.962;5.974;2023-06-04T10:47:26;3.60;;;1.10;;
59756;SDS011;45631;51.962;5.974;2023-06-04T10:50:06;3.70;;;1.27;;
59756;SDS011;45631;51.962;5.974;2023-06-04T10:52:36;4.28;;;1.27;;
59756;SDS011;45631;51.962;5.974;2023-06-04T10:55:06;5.38;;;1.23;;
59756;SDS011;45631;51.962;5.974;2023-06-04T10:57:37;3.33;;;1.00;;
59756;SDS011;45631;51.962;5.974;2023-06-04T11:00:05;2.90;;;1.00;;
59756;SDS011;45631;51.962;5.974;2023-06-04T11:02:36;3.55;;;1.15;;
59756;SDS011;45631;51.962;5.974;2023-06-04T11:05:16;3.03;;;1.17;;
59756;SDS011;45631;51.962;5.974;2023-06-04T11:07:45;2.83;;;1.02;;
59756;SDS011;45631;51.962;5.974;2023-06-04T11:10:15;2.80;;;1.20;;
59756;SDS011;45631;51.962;5.974;2023-06-04T11:12:46;3.55;;;1.35;;
59756;SDS011;45631;51.962;5.974;2023-06-04T11:15:17;2.08;;;1.10;;
59756;SDS011;45631;51.962;5.974;2023-06-04T11:17:48;2.80;;;1.00;;
59756;SDS011;45631;51.962;5.974;2023-06-04T11:20:18;2.67;;;1.10;;
59756;SDS011;45631;51.962;5.974;2023-06-04T11:22:50;3.47;;;1.30;;
59756;SDS011;45631;51.962;5.974;2023-06-04T11:25:23;4.07;;;1.13;;
59756;SDS011;45631;51.962;5.974;2023-06-04T11:27:54;2.38;;;1.00;;
59756;SDS011;45631;51.962;5.974;2023-06-04T11:30:23;5.13;;;1.27;;
59756;SDS011;45631;51.962;5.974;2023-06-04T11:32:59;5.50;;;1.10;;
59756;SDS011;45631;51.962;5.974;2023-06-04T11:35:28;2.83;;;0.90;;
59756;SDS011;45631;51.962;5.974;2023-06-04T11:37:57;4.20;;;1.25;;
59756;SDS011;45631;51.962;5.974;2023-06-04T11:40:26;2.65;;;1.02;;
59756;SDS011;45631;51.962;5.974;2023-06-04T11:42:58;2.38;;;1.10;;
59756;SDS011;45631;51.962;5.974;2023-06-04T11:45:26;2.40;;;1.10;;
59756;SDS011;45631;51.962;5.974;2023-06-04T11:47:56;4.13;;;1.38;;
59756;SDS011;45631;51.962;5.974;2023-06-04T11:50:26;3.45;;;1.17;;
59756;SDS011;45631;51.962;5.974;2023-06-04T11:52:55;2.65;;;1.00;;
59756;SDS011;45631;51.962;5.974;2023-06-04T11:55:24;2.70;;;1.20;;
59756;SDS011;45631;51.962;5.974;2023-06-04T11:57:53;3.22;;;1.25;;
59756;SDS011;45631;51.962;5.974;2023-06-04T12:00:23;3.47;;;1.38;;
59756;SDS011;45631;51.962;5.974;2023-06-04T12:02:52;2.20;;;1.20;;
59756;SDS011;45631;51.962;5.974;2023-06-04T12:05:22;2.25;;;1.10;;
59756;SDS011;45631;51.962;5.974;2023-06-04T12:08:03;1.75;;;0.93;;
59756;SDS011;45631;51.962;5.974;2023-06-04T12:10:36;5.30;;;1.20;;
59756;SDS011;45631;51.962;5.974;2023-06-04T12:13:05;3.38;;;1.20;;
59756;SDS011;45631;51.962;5.974;2023-06-04T12:15:35;1.52;;;1.10;;
59756;SDS011;45631;51.962;5.974;2023-06-04T12:18:04;2.95;;;1.23;;
59756;SDS011;45631;51.962;5.974;2023-06-04T12:20:33;3.58;;;1.20;;
59756;SDS011;45631;51.962;5.974;2023-06-04T12:23:02;4.60;;;1.20;;
59756;SDS011;45631;51.962;5.974;2023-06-04T12:25:33;3.40;;;1.13;;
59756;SDS011;45631;51.962;5.974;2023-06-04T12:28:04;2.03;;;1.10;;
59756;SDS011;45631;51.962;5.974;2023-06-04T12:30:37;4.50;;;1.25;;
59756;SDS011;45631;51.962;5.974;2023-06-04T12:33:06;3.45;;;1.13;;
59756;SDS011;45631;51.962;5.974;2023-06-04T12:35:34;7.25;;;1.52;;
59756;SDS011;45631;51.962;5.974;2023-06-04T12:38:03;3.47;;;1.15;;
59756;SDS011;45631;51.962;5.974;2023-06-04T12:40:32;6.25;;;1.38;;
59756;SDS011;45631;51.962;5.974;2023-06-04T12:43:00;9.77;;;2.08;;
59756;SDS011;45631;51.962;5.974;2023-06-04T12:45:28;3.05;;;1.35;;
59756;SDS011;45631;51.962;5.974;2023-06-04T12:47:58;3.28;;;1.10;;
59756;SDS011;45631;51.962;5.974;2023-06-04T12:50:26;5.72;;;1.50;;
59756;SDS011;45631;51.962;5.974;2023-06-04T12:52:54;3.08;;;1.40;;
59756;SDS011;45631;51.962;5.974;2023-06-04T12:55:22;4.47;;;1.50;;
59756;SDS011;45631;51.962;5.974;2023-06-04T12:57:53;4.43;;;1.25;;
59756;SDS011;45631;51.962;5.974;2023-06-04T13:00:22;3.22;;;1.15;;
59756;SDS011;45631;51.962;5.974;2023-06-04T13:02:50;2.70;;;1.40;;
59756;SDS011;45631;51.962;5.974;2023-06-04T13:05:20;3.45;;;1.35;;
59756;SDS011;45631;51.962;5.974;2023-06-04T13:07:50;3.30;;;1.27;;
59756;SDS011;45631;51.962;5.974;2023-06-04T13:10:18;2.67;;;1.27;;
59756;SDS011;45631;51.962;5.974;2023-06-04T13:12:47;4.22;;;1.33;;
59756;SDS011;45631;51.962;5.974;2023-06-04T13:15:15;4.22;;;1.50;;
59756;SDS011;45631;51.962;5.974;2023-06-04T13:17:43;2.58;;;1.30;;
59756;SDS011;45631;51.962;5.974;2023-06-04T13:20:11;4.22;;;1.60;;
59756;SDS011;45631;51.962;5.974;2023-06-04T13:22:41;4.28;;;1.67;;
59756;SDS011;45631;51.962;5.974;2023-06-04T13:25:10;3.25;;;1.42;;
59756;SDS011;45631;51.962;5.974;2023-06-04T13:27:38;4.82;;;1.60;;
59756;SDS011;45631;51.962;5.974;2023-06-04T13:30:08;2.63;;;1.30;;
59756;SDS011;45631;51.962;5.974;2023-06-04T13:32:37;4.25;;;1.20;;
59756;SDS011;45631;51.962;5.974;2023-06-04T13:35:07;3.67;;;1.25;;
59756;SDS011;45631;51.962;5.974;2023-06-04T13:37:36;3.25;;;1.45;;
59756;SDS011;45631;51.962;5.974;2023-06-04T13:40:06;4.47;;;1.52;;
59756;SDS011;45631;51.962;5.974;2023-06-04T13:42:35;5.22;;;1.50;;
59756;SDS011;45631;51.962;5.974;2023-06-04T13:45:03;3.25;;;1.40;;
59756;SDS011;45631;51.962;5.974;2023-06-04T13:47:32;2.30;;;1.20;;
59756;SDS011;45631;51.962;5.974;2023-06-04T13:50:01;4.50;;;1.30;;
59756;SDS011;45631;51.962;5.974;2023-06-04T13:52:30;4.30;;;1.50;;
59756;SDS011;45631;51.962;5.974;2023-06-04T13:54:58;3.83;;;1.52;;
59756;SDS011;45631;51.962;5.974;2023-06-04T13:57:28;2.97;;;1.38;;
59756;SDS011;45631;51.962;5.974;2023-06-04T13:59:56;3.38;;;1.33;;
59756;SDS011;45631;51.962;5.974;2023-06-04T14:02:24;6.97;;;1.58;;
59756;SDS011;45631;51.962;5.974;2023-06-04T14:04:53;3.80;;;1.17;;
59756;SDS011;45631;51.962;5.974;2023-06-04T14:07:22;2.88;;;1.40;;
59756;SDS011;45631;51.962;5.974;2023-06-04T14:09:50;3.60;;;1.33;;
59756;SDS011;45631;51.962;5.974;2023-06-04T14:12:21;3.15;;;1.40;;
59756;SDS011;45631;51.962;5.974;2023-06-04T14:14:51;3.08;;;1.13;;
59756;SDS011;45631;51.962;5.974;2023-06-04T14:17:19;3.83;;;1.30;;
59756;SDS011;45631;51.962;5.974;2023-06-04T14:19:48;2.22;;;1.38;;
59756;SDS011;45631;51.962;5.974;2023-06-04T14:22:16;3.70;;;1.40;;
59756;SDS011;45631;51.962;5.974;2023-06-04T14:24:44;2.25;;;1.20;;
59756;SDS011;45631;51.962;5.974;2023-06-04T14:27:12;7.60;;;1.42;;
59756;SDS011;45631;51.962;5.974;2023-06-04T14:29:40;3.55;;;1.50;;
59756;SDS011;45631;51.962;5.974;2023-06-04T14:32:10;2.50;;;1.40;;
59756;SDS011;45631;51.962;5.974;2023-06-04T14:34:38;4.55;;;1.50;;
59756;SDS011;45631;51.962;5.974;2023-06-04T14:37:06;2.10;;;1.20;;
59756;SDS011;45631;51.962;5.974;2023-06-04T14:39:34;2.60;;;1.35;;
59756;SDS011;45631;51.962;5.974;2023-06-04T14:42:04;4.60;;;1.40;;
59756;SDS011;45631;51.962;5.974;2023-06-04T14:44:34;3.83;;;1.38;;
59756;SDS011;45631;51.962;5.974;2023-06-04T14:47:03;4.22;;;1.50;;
59756;SDS011;45631;51.962;5.974;2023-06-04T14:49:33;3.40;;;1.42;;
59756;SDS011;45631;51.962;5.974;2023-06-04T14:54:33;2.97;;;1.40;;
59756;SDS011;45631;51.962;5.974;2023-06-04T14:57:01;3.70;;;1.60;;
59756;SDS011;45631;51.962;5.974;2023-06-04T14:59:30;3.05;;;1.38;;
59756;SDS011;45631;51.962;5.974;2023-06-04T15:02:00;3.58;;;1.63;;
59756;SDS011;45631;51.962;5.974;2023-06-04T15:04:28;4.75;;;1.73;;
59756;SDS011;45631;51.962;5.974;2023-06-04T15:06:58;6.30;;;1.80;;